Terminal Aerodrome Forecast
Issued by NWS

Home | Current Version | Previous Version | Text Only | Print | Product List | Glossary On
Versions: 1 2 3 4 5 6 7 8 9 10 11 12 13 14 15 16
000
FTUS43 KJKL 091300 AAA
TAFSME
TAF AMD
KSME 091308Z 0913/1012 26007KT P6SM BKN008 OVC025
     FM091400 26007KT P6SM BKN025 OVC050
     FM091500 26007KT P6SM SCT030 BKN050
     FM100600 00000KT 2SM BR SCT001
     FM100800 00000KT 1/2SM FG VV001=

USA.gov is the U.S. government's official web portal to all federal, state and local government web resources and services.